»·PEaware :: N91DM KSBA-KSBA

N91DM :: KSBA-KSBA

FLIGHT INFORMATION

Flight Status: Arrived
Operator: Privately registered:
United States
More flights under this callsign
Pilot: Jeff L. (31878)
Aircraft: CESSNA 172 SKYHAWK
(C172)
More flights by this aircraft type
Origin: KSBA Santa Barbara Mun
United States
Destination: KSBA Santa Barbara Mun
United States
More flights between these airports :: More routes between these airports
Route: KSBA GVO GLJ KSBP KSBA
File this flight plan on PilotEdge
Remarks:
Altitude:
(Current/Filed)
3,000ft
Speed:
(Current/Filed)
110kts
Departed: 01-Nov-20 09:45 AM
Arrived: 01-Nov-20 11:18 AM
Distance/Time
Traveled:
0nm/1:33
Distance/Time
To Go:
Arrived

Flight Plot

Page will automatically refresh every two minutes.

Flight plan parsing failed; only flown route is shown


Map Options




Map Legend


Flown Route
Filed Route
Departure Airport
Arrival Airport
Navaid (VOR, NDB)
Fix

Horizontal Profiles

Position Reports

Time Latitude Longitude Heading Altitude Ground
Speed
01-Nov-20 09:30 34.421812 -119.836025 341 13ft 0kts
01-Nov-20 09:31 34.421812 -119.836025 341 13ft 0kts
01-Nov-20 09:32 34.421813 -119.836025 341 13ft 0kts
01-Nov-20 09:33 34.421813 -119.836025 341 13ft 0kts
01-Nov-20 09:34 34.421813 -119.836025 341 13ft 0kts
01-Nov-20 09:35 34.422371 -119.836626 320 13ft 14kts
01-Nov-20 09:36 34.425827 -119.838068 345 13ft 15kts
01-Nov-20 09:37 34.426722 -119.834379 64 12ft 8kts
01-Nov-20 09:38 34.426901 -119.834285 352 12ft 0kts
01-Nov-20 09:39 34.426901 -119.834285 352 12ft 0kts
01-Nov-20 09:40 34.426901 -119.834285 352 12ft 0kts
01-Nov-20 09:41 34.426901 -119.834285 352 12ft 0kts
01-Nov-20 09:42 34.427161 -119.834552 347 12ft 0kts
01-Nov-20 09:43 34.427900 -119.835352 270 12ft 17kts
01-Nov-20 09:44 34.427352 -119.853817 266 350ft 65kts
01-Nov-20 09:45 34.426420 -119.877620 271 983ft 67kts
01-Nov-20 09:46 34.426385 -119.903844 267 1519ft 88kts
01-Nov-20 09:47 34.424930 -119.939744 267 1451ft 115kts
01-Nov-20 09:48 34.425082 -119.976184 270 1524ft 104kts
01-Nov-20 09:50 34.426377 -120.012025 273 1511ft 107kts
01-Nov-20 09:51 34.428199 -120.047892 273 1544ft 106kts
01-Nov-20 09:52 34.435169 -120.081103 320 1720ft 102kts
01-Nov-20 09:53 34.460722 -120.086709 357 2412ft 92kts
01-Nov-20 09:54 34.485991 -120.088231 357 3066ft 90kts
01-Nov-20 09:55 34.512559 -120.089898 357 3484ft 106kts
01-Nov-20 09:56 34.543026 -120.094175 331 3504ft 114kts
01-Nov-20 09:57 34.566526 -120.119537 274 3512ft 115kts
01-Nov-20 09:58 34.585350 -120.148501 318 3527ft 115kts
01-Nov-20 09:59 34.609818 -120.174668 318 3396ft 119kts
01-Nov-20 10:00 34.634332 -120.201063 317 3193ft 117kts
01-Nov-20 10:01 34.658553 -120.227295 317 3037ft 115kts
01-Nov-20 10:02 34.681799 -120.252798 317 3020ft 111kts
01-Nov-20 10:03 34.704820 -120.278527 316 2970ft 112kts
01-Nov-20 10:04 34.728027 -120.303617 326 2964ft 111kts
01-Nov-20 10:05 34.754764 -120.327347 323 2610ft 123kts
01-Nov-20 10:06 34.782304 -120.352346 323 2202ft 123kts
01-Nov-20 10:07 34.809403 -120.376769 331 1993ft 114kts
01-Nov-20 10:07 34.808921 -120.369834 252 2227ft 101kts
01-Nov-20 10:09 34.838670 -120.385424 337 2158ft 106kts
01-Nov-20 10:09 34.858071 -120.404881 315 1641ft 101kts
01-Nov-20 10:10 34.877206 -120.427455 316 948ft 79kts
01-Nov-20 10:11 34.892512 -120.445586 315 294ft 76kts
01-Nov-20 10:12 34.905308 -120.460798 315 406ft 77kts
01-Nov-20 10:13 34.921048 -120.478578 315 954ft 88kts
01-Nov-20 10:14 34.938081 -120.497718 321 1681ft 84kts
01-Nov-20 10:15 34.958044 -120.515079 334 2336ft 87kts
01-Nov-20 10:16 34.985442 -120.525082 339 2464ft 118kts
01-Nov-20 10:17 35.017145 -120.539976 339 2458ft 123kts
01-Nov-20 10:18 35.048363 -120.554680 339 2455ft 112kts
01-Nov-20 10:19 35.076806 -120.568061 339 2461ft 108kts
01-Nov-20 10:20 35.104825 -120.581246 339 2486ft 107kts
01-Nov-20 10:21 35.132664 -120.589325 37 2556ft 102kts
01-Nov-20 10:22 35.157577 -120.572529 1 2534ft 108kts
01-Nov-20 10:23 35.187496 -120.571908 1 2081ft 100kts
01-Nov-20 10:24 35.207648 -120.588653 302 1608ft 93kts
01-Nov-20 10:25 35.221868 -120.614048 305 1069ft 84kts
01-Nov-20 10:26 35.234057 -120.635301 306 208ft 59kts
01-Nov-20 10:27 35.243847 -120.652814 302 491ft 73kts
01-Nov-20 10:28 35.238307 -120.670652 177 1054ft 79kts
01-Nov-20 10:29 35.219692 -120.651121 134 1227ft 95kts
01-Nov-20 10:30 35.205214 -120.628379 79 1212ft 84kts
01-Nov-20 10:31 35.223140 -120.618642 334 801ft 75kts
01-Nov-20 10:32 35.235647 -120.638062 305 201ft 50kts
01-Nov-20 10:33 35.246074 -120.657339 301 598ft 76kts
01-Nov-20 10:34 35.235198 -120.669444 132 1075ft 91kts
01-Nov-20 10:35 35.219728 -120.644251 126 1277ft 91kts
01-Nov-20 10:36 35.216243 -120.620803 36 880ft 81kts
01-Nov-20 10:37 35.231522 -120.630875 305 324ft 75kts
01-Nov-20 10:38 35.241167 -120.647769 303 301ft 73kts
01-Nov-20 10:39 35.247658 -120.669893 200 909ft 82kts
01-Nov-20 10:40 35.225295 -120.663735 150 1547ft 86kts
01-Nov-20 10:41 35.206806 -120.646602 138 2256ft 84kts
01-Nov-20 10:42 35.189364 -120.628360 139 2945ft 82kts
01-Nov-20 10:43 35.174616 -120.606113 119 3440ft 98kts
01-Nov-20 10:44 35.160108 -120.574140 119 3470ft 110kts
01-Nov-20 10:45 35.140599 -120.546266 143 3471ft 111kts
01-Nov-20 10:46 35.116530 -120.522471 140 3474ft 111kts
01-Nov-20 10:47 35.092457 -120.498392 141 3468ft 111kts
01-Nov-20 10:48 35.068380 -120.474386 141 3473ft 111kts
01-Nov-20 10:49 35.044384 -120.450491 140 3473ft 111kts
01-Nov-20 10:50 35.020197 -120.426424 141 3463ft 112kts
01-Nov-20 10:51 34.996085 -120.402450 141 3461ft 111kts
01-Nov-20 10:52 34.971911 -120.378438 140 3460ft 111kts
01-Nov-20 10:53 34.948072 -120.354771 140 3495ft 110kts
01-Nov-20 10:54 34.924084 -120.330979 140 3489ft 111kts
01-Nov-20 10:55 34.900010 -120.307119 141 3487ft 111kts
01-Nov-20 10:56 34.875886 -120.283227 140 3486ft 111kts
01-Nov-20 10:57 34.851767 -120.259360 140 3492ft 111kts
01-Nov-20 10:58 34.827357 -120.235224 141 3465ft 112kts
01-Nov-20 10:59 34.803056 -120.211215 141 3467ft 113kts
01-Nov-20 11:00 34.778603 -120.187073 141 3463ft 112kts
01-Nov-20 11:01 34.754213 -120.163014 141 3464ft 113kts
01-Nov-20 11:02 34.729629 -120.138781 142 3463ft 114kts
01-Nov-20 11:03 34.704758 -120.114287 142 3460ft 120kts
01-Nov-20 11:04 34.679822 -120.089744 142 3921ft 111kts
01-Nov-20 11:05 34.659143 -120.069358 139 4746ft 72kts
01-Nov-20 11:06 34.639338 -120.051945 145 5079ft 102kts
01-Nov-20 11:07 34.616331 -120.031111 137 5470ft 109kts
01-Nov-20 11:08 34.592417 -120.005021 140 5360ft 115kts
01-Nov-20 11:09 34.567604 -119.981110 142 5297ft 114kts
01-Nov-20 11:10 34.543183 -119.958412 144 4914ft 103kts
01-Nov-20 11:11 34.519946 -119.940529 161 3818ft 102kts
01-Nov-20 11:12 34.496263 -119.923312 126 2597ft 100kts
01-Nov-20 11:13 34.479428 -119.900172 137 1886ft 89kts
01-Nov-20 11:14 34.460387 -119.884226 151 1444ft 82kts
01-Nov-20 11:15 34.440230 -119.872885 165 1058ft 76kts
01-Nov-20 11:16 34.427453 -119.856809 86 99ft 80kts
01-Nov-20 11:17 34.427688 -119.842170 100 13ft 22kts
01-Nov-20 11:18 34.426620 -119.838323 165 13ft 10kts
01-Nov-20 11:19 34.422693 -119.836973 98 13ft 9kts

Navigation Log

Ident Type
Flight plan parsing failed, navigation log unavailable